createdAt,value
2022-12-23T00:00:27.339Z,646.00
2022-12-23T00:00:57.419Z,645.00
2022-12-23T00:01:27.562Z,646.00
2022-12-23T00:01:57.742Z,647.00
2022-12-23T00:02:27.823Z,648.00
2022-12-23T00:02:57.849Z,650.00
2022-12-23T00:03:27.868Z,650.00
2022-12-23T00:03:57.900Z,648.00
2022-12-23T00:04:27.809Z,650.00
2022-12-23T00:04:57.872Z,649.00
2022-12-23T00:05:32.633Z,647.00
2022-12-23T00:05:58.023Z,647.00
2022-12-23T00:06:28.128Z,647.00
2022-12-23T00:06:58.202Z,648.00
2022-12-23T00:07:28.286Z,648.00
2022-12-23T00:07:58.379Z,646.00
2022-12-23T00:08:28.476Z,647.00
2022-12-23T00:08:59.201Z,646.00
2022-12-23T00:09:28.567Z,646.00
2022-12-23T00:09:58.644Z,647.00
2022-12-23T00:10:28.726Z,646.00
2022-12-23T00:10:58.813Z,647.00
2022-12-23T00:11:28.920Z,646.00
2022-12-23T00:11:59.019Z,647.00
2022-12-23T00:12:29.080Z,646.00
2022-12-23T00:12:59.177Z,648.00
2022-12-23T00:13:29.274Z,649.00
2022-12-23T00:13:59.353Z,648.00
2022-12-23T00:14:29.419Z,648.00
2022-12-23T00:14:59.519Z,647.00
2022-12-23T00:15:29.597Z,649.00
2022-12-23T00:15:59.723Z,648.00
2022-12-23T00:16:29.730Z,649.00
2022-12-23T00:16:59.834Z,649.00
2022-12-23T00:17:29.745Z,649.00
2022-12-23T00:17:59.820Z,647.00
2022-12-23T00:18:29.911Z,647.00
2022-12-23T00:18:59.981Z,647.00
2022-12-23T00:19:30.095Z,644.00
2022-12-23T00:20:00.228Z,644.00
2022-12-23T00:20:30.187Z,643.00
2022-12-23T00:21:06.664Z,642.00
2022-12-23T00:21:30.335Z,645.00
2022-12-23T00:22:00.427Z,646.00
2022-12-23T00:22:30.520Z,645.00
2022-12-23T00:23:00.595Z,645.00
2022-12-23T00:23:30.689Z,644.00
2022-12-23T00:24:00.784Z,645.00
2022-12-23T00:24:30.853Z,644.00
2022-12-23T00:25:00.937Z,643.00
2022-12-23T00:25:31.021Z,642.00
2022-12-23T00:26:01.107Z,642.00
2022-12-23T00:26:31.195Z,640.00
2022-12-23T00:27:01.277Z,640.00
2022-12-23T00:27:35.777Z,640.00
2022-12-23T00:28:01.578Z,640.00
2022-12-23T00:28:31.484Z,639.00
2022-12-23T00:29:01.567Z,637.00
2022-12-23T00:29:31.652Z,636.00
2022-12-23T00:30:01.744Z,637.00
2022-12-23T00:30:31.810Z,636.00
2022-12-23T00:31:01.896Z,637.00
2022-12-23T00:31:32.236Z,638.00
2022-12-23T00:32:02.118Z,638.00
2022-12-23T00:32:32.088Z,638.00
2022-12-23T00:33:02.187Z,639.00
2022-12-23T00:33:32.264Z,639.00
2022-12-23T00:34:02.357Z,639.00
2022-12-23T00:34:32.459Z,640.00
2022-12-23T00:35:02.518Z,639.00
2022-12-23T00:35:32.605Z,637.00
2022-12-23T00:36:02.769Z,635.00
2022-12-23T00:36:32.908Z,635.00
2022-12-23T00:37:02.839Z,636.00
2022-12-23T00:37:32.901Z,636.00
2022-12-23T00:38:02.988Z,636.00
2022-12-23T00:38:33.071Z,636.00
2022-12-23T00:39:03.151Z,635.00
2022-12-23T00:39:33.238Z,637.00
2022-12-23T00:40:06.779Z,638.00
2022-12-23T00:40:33.367Z,638.00
2022-12-23T00:41:03.477Z,637.00
2022-12-23T00:41:33.528Z,638.00
2022-12-23T00:42:03.618Z,638.00
2022-12-23T00:42:33.703Z,637.00
2022-12-23T00:43:03.784Z,637.00
2022-12-23T00:43:33.864Z,635.00
2022-12-23T00:44:03.952Z,636.00
2022-12-23T00:44:34.028Z,636.00
2022-12-23T00:45:04.066Z,637.00
2022-12-23T00:45:34.130Z,634.00
2022-12-23T00:46:04.333Z,636.00
2022-12-23T00:46:34.195Z,634.00
2022-12-23T00:47:04.249Z,633.00
2022-12-23T00:47:34.293Z,632.00
2022-12-23T00:48:04.344Z,634.00
2022-12-23T00:48:34.381Z,636.00
2022-12-23T00:49:04.409Z,634.00
2022-12-23T00:49:34.490Z,634.00
2022-12-23T00:50:04.499Z,634.00
2022-12-23T00:50:34.531Z,635.00
2022-12-23T00:51:04.567Z,636.00
2022-12-23T00:51:34.616Z,638.00
2022-12-23T00:52:04.661Z,634.00
2022-12-23T00:52:34.701Z,636.00
2022-12-23T00:53:04.749Z,634.00
2022-12-23T00:53:34.806Z,635.00
2022-12-23T00:54:04.857Z,635.00
2022-12-23T00:54:34.908Z,633.00
2022-12-23T00:55:04.992Z,633.00
2022-12-23T00:55:35.086Z,631.00
2022-12-23T00:56:05.163Z,631.00
2022-12-23T00:56:35.250Z,631.00
2022-12-23T00:57:05.324Z,631.00
2022-12-23T00:57:35.419Z,631.00
2022-12-23T00:58:05.506Z,631.00
2022-12-23T00:58:35.596Z,632.00
2022-12-23T00:59:05.685Z,632.00
2022-12-23T00:59:35.770Z,633.00
2022-12-23T01:00:05.849Z,634.00
2022-12-23T01:00:35.948Z,635.00
2022-12-23T01:01:06.075Z,636.00
2022-12-23T01:01:36.129Z,636.00
2022-12-23T01:02:06.322Z,631.00
2022-12-23T01:02:36.326Z,633.00
2022-12-23T01:03:06.274Z,634.00
2022-12-23T01:03:36.317Z,633.00
2022-12-23T01:04:06.296Z,632.00
2022-12-23T01:04:36.392Z,634.00
2022-12-23T01:05:06.478Z,633.00
2022-12-23T01:05:36.538Z,632.00
2022-12-23T01:06:06.630Z,631.00
2022-12-23T01:06:36.704Z,630.00
2022-12-23T01:07:06.792Z,629.00
2022-12-23T01:07:36.895Z,631.00
2022-12-23T01:08:06.951Z,630.00
2022-12-23T01:08:37.050Z,630.00
2022-12-23T01:09:07.127Z,630.00
2022-12-23T01:09:37.210Z,632.00
2022-12-23T01:10:07.285Z,631.00
2022-12-23T01:10:37.380Z,631.00
2022-12-23T01:11:07.470Z,629.00
2022-12-23T01:11:37.569Z,628.00
2022-12-23T01:12:07.631Z,628.00
2022-12-23T01:12:37.724Z,628.00
2022-12-23T01:13:07.802Z,625.00
2022-12-23T01:13:38.012Z,627.00
2022-12-23T01:14:07.974Z,629.00
2022-12-23T01:14:38.052Z,631.00
2022-12-23T01:15:08.134Z,629.00
2022-12-23T01:15:38.221Z,630.00
2022-12-23T01:16:13.305Z,630.00
2022-12-23T01:16:38.444Z,630.00
2022-12-23T01:17:08.524Z,631.00
2022-12-23T01:17:38.415Z,633.00
2022-12-23T01:18:08.503Z,631.00
2022-12-23T01:18:38.623Z,631.00
2022-12-23T01:19:08.601Z,629.00
2022-12-23T01:19:38.702Z,631.00
2022-12-23T01:20:08.784Z,630.00
2022-12-23T01:20:38.858Z,631.00
2022-12-23T01:21:08.939Z,629.00
2022-12-23T01:21:39.032Z,630.00
2022-12-23T01:22:09.120Z,631.00
2022-12-23T01:22:39.174Z,628.00
2022-12-23T01:23:09.265Z,629.00
2022-12-23T01:23:39.370Z,629.00
2022-12-23T01:24:09.459Z,627.00
2022-12-23T01:24:39.536Z,626.00
2022-12-23T01:25:09.605Z,631.00
2022-12-23T01:25:39.691Z,628.00
2022-12-23T01:26:09.772Z,630.00
2022-12-23T01:26:39.856Z,627.00
2022-12-23T01:27:09.935Z,627.00
2022-12-23T01:27:40.028Z,624.00
2022-12-23T01:28:10.104Z,624.00
2022-12-23T01:28:40.212Z,625.00
2022-12-23T01:29:10.287Z,627.00
2022-12-23T01:29:40.372Z,627.00
2022-12-23T01:30:10.467Z,629.00
2022-12-23T01:30:40.554Z,629.00
2022-12-23T01:31:10.632Z,627.00
2022-12-23T01:31:40.753Z,620.00
2022-12-23T01:32:10.802Z,623.00
2022-12-23T01:32:40.770Z,624.00
2022-12-23T01:33:10.855Z,623.00
2022-12-23T01:33:40.978Z,624.00
2022-12-23T01:34:10.956Z,624.00
2022-12-23T01:34:41.028Z,625.00
2022-12-23T01:35:11.142Z,624.00
2022-12-23T01:35:41.199Z,624.00
2022-12-23T01:36:11.297Z,622.00
2022-12-23T01:36:41.376Z,623.00
2022-12-23T01:37:11.467Z,622.00
2022-12-23T01:37:41.556Z,623.00
2022-12-23T01:38:11.623Z,623.00
2022-12-23T01:38:41.733Z,624.00
2022-12-23T01:39:11.703Z,624.00
2022-12-23T01:39:41.785Z,625.00
2022-12-23T01:40:11.875Z,625.00
2022-12-23T01:40:41.943Z,623.00
2022-12-23T01:41:12.027Z,622.00
2022-12-23T01:41:42.120Z,623.00
2022-12-23T01:42:12.193Z,622.00
2022-12-23T01:42:42.275Z,624.00
2022-12-23T01:43:12.359Z,622.00
2022-12-23T01:43:42.472Z,622.00
2022-12-23T01:44:12.439Z,622.00
2022-12-23T01:44:42.491Z,624.00
2022-12-23T01:45:12.538Z,625.00
2022-12-23T01:45:42.671Z,624.00
2022-12-23T01:46:12.718Z,624.00
2022-12-23T01:46:42.691Z,625.00
2022-12-23T01:47:12.737Z,623.00
2022-12-23T01:47:42.794Z,624.00
2022-12-23T01:48:12.824Z,625.00
2022-12-23T01:48:42.945Z,625.00
2022-12-23T01:49:12.962Z,624.00
2022-12-23T01:49:43.007Z,623.00
2022-12-23T01:50:13.052Z,625.00
2022-12-23T01:50:43.113Z,624.00
2022-12-23T01:51:13.136Z,622.00
2022-12-23T01:51:43.180Z,623.00
2022-12-23T01:52:13.215Z,619.00
2022-12-23T01:52:43.269Z,616.00
2022-12-23T01:53:13.312Z,619.00
2022-12-23T01:53:43.391Z,618.00
2022-12-23T01:54:13.458Z,617.00
2022-12-23T01:54:43.528Z,617.00
2022-12-23T01:55:13.621Z,618.00
2022-12-23T01:55:43.695Z,618.00
2022-12-23T01:56:13.790Z,616.00
2022-12-23T01:56:43.875Z,616.00
2022-12-23T01:57:13.962Z,615.00
2022-12-23T01:57:44.047Z,617.00
2022-12-23T01:58:14.126Z,617.00
2022-12-23T01:58:44.230Z,617.00
2022-12-23T01:59:14.212Z,617.00
2022-12-23T01:59:44.299Z,619.00
2022-12-23T02:00:14.401Z,620.00
2022-12-23T02:00:44.465Z,620.00
2022-12-23T02:01:14.612Z,622.00
2022-12-23T02:01:44.817Z,622.00
2022-12-23T02:02:14.819Z,625.00
2022-12-23T02:02:44.765Z,623.00
2022-12-23T02:03:14.714Z,625.00
2022-12-23T02:03:44.990Z,629.00
2022-12-23T02:04:14.745Z,626.00
2022-12-23T02:04:44.836Z,624.00
2022-12-23T02:05:14.911Z,622.00
2022-12-23T02:05:44.992Z,623.00
2022-12-23T02:06:15.104Z,622.00
2022-12-23T02:06:45.170Z,621.00
2022-12-23T02:07:15.255Z,623.00
2022-12-23T02:07:45.343Z,622.00
2022-12-23T02:08:15.440Z,620.00
2022-12-23T02:08:45.546Z,626.00
2022-12-23T02:09:15.626Z,624.00
2022-12-23T02:09:45.705Z,625.00
2022-12-23T02:10:15.794Z,626.00
2022-12-23T02:10:45.879Z,623.00
2022-12-23T02:11:15.958Z,623.00
2022-12-23T02:11:46.038Z,621.00
2022-12-23T02:12:16.127Z,622.00
2022-12-23T02:12:46.212Z,619.00
2022-12-23T02:13:16.291Z,619.00
2022-12-23T02:13:46.427Z,620.00
2022-12-23T02:14:16.386Z,620.00
2022-12-23T02:14:46.479Z,623.00
2022-12-23T02:15:16.566Z,621.00
2022-12-23T02:15:46.649Z,622.00
2022-12-23T02:16:16.805Z,623.00
2022-12-23T02:16:46.903Z,623.00
2022-12-23T02:17:16.980Z,623.00
2022-12-23T02:17:46.951Z,625.00
2022-12-23T02:18:17.012Z,626.00
2022-12-23T02:18:47.133Z,626.00
2022-12-23T02:19:17.094Z,625.00
2022-12-23T02:19:47.191Z,624.00
2022-12-23T02:20:17.283Z,621.00
2022-12-23T02:20:47.370Z,621.00
2022-12-23T02:21:17.482Z,621.00
2022-12-23T02:21:47.549Z,622.00
2022-12-23T02:22:17.598Z,620.00
2022-12-23T02:22:47.680Z,621.00
2022-12-23T02:23:17.766Z,621.00
2022-12-23T02:23:47.920Z,620.00
2022-12-23T02:24:17.873Z,620.00
2022-12-23T02:24:47.958Z,622.00
2022-12-23T02:25:18.049Z,624.00
2022-12-23T02:25:48.137Z,620.00
2022-12-23T02:26:18.220Z,623.00
2022-12-23T02:26:48.309Z,622.00
2022-12-23T02:27:18.391Z,623.00
2022-12-23T02:27:48.488Z,623.00
2022-12-23T02:28:18.585Z,624.00
2022-12-23T02:28:48.732Z,625.00
2022-12-23T02:29:18.687Z,625.00
2022-12-23T02:29:48.779Z,626.00
2022-12-23T02:30:18.871Z,621.00
2022-12-23T02:30:48.951Z,623.00
2022-12-23T02:31:19.073Z,624.00
2022-12-23T02:31:49.063Z,624.00
2022-12-23T02:32:19.156Z,624.00
2022-12-23T02:32:49.227Z,625.00
2022-12-23T02:33:19.302Z,621.00
2022-12-23T02:33:49.435Z,620.00
2022-12-23T02:34:19.395Z,619.00
2022-12-23T02:34:49.477Z,620.00
2022-12-23T02:35:19.480Z,620.00
2022-12-23T02:35:49.560Z,622.00
2022-12-23T02:36:19.737Z,619.00
2022-12-23T02:36:49.660Z,619.00
2022-12-23T02:37:19.760Z,619.00
2022-12-23T02:37:49.822Z,619.00
2022-12-23T02:38:19.909Z,620.00
2022-12-23T02:38:50.031Z,619.00
2022-12-23T02:39:19.995Z,621.00
2022-12-23T02:39:50.079Z,609.00
2022-12-23T02:40:20.161Z,616.00
2022-12-23T02:40:50.256Z,617.00
2022-12-23T02:41:20.340Z,616.00
2022-12-23T02:41:50.415Z,614.00
2022-12-23T02:42:20.498Z,615.00
2022-12-23T02:42:50.622Z,617.00
2022-12-23T02:43:20.675Z,616.00
2022-12-23T02:43:50.783Z,617.00
2022-12-23T02:44:20.881Z,616.00
2022-12-23T02:44:50.967Z,614.00
2022-12-23T02:45:21.052Z,615.00
2022-12-23T02:45:51.200Z,613.00
2022-12-23T02:46:21.288Z,614.00
2022-12-23T02:46:51.256Z,612.00
2022-12-23T02:47:21.348Z,613.00
2022-12-23T02:47:51.420Z,611.00
2022-12-23T02:48:21.489Z,613.00
2022-12-23T02:48:51.615Z,614.00
2022-12-23T02:49:21.582Z,614.00
2022-12-23T02:49:51.671Z,616.00
2022-12-23T02:50:21.757Z,614.00
2022-12-23T02:50:51.836Z,614.00
2022-12-23T02:51:21.917Z,613.00
2022-12-23T02:51:52.102Z,612.00
2022-12-23T02:52:22.060Z,611.00
2022-12-23T02:52:52.160Z,611.00
2022-12-23T02:53:22.232Z,610.00
2022-12-23T02:53:52.369Z,611.00
2022-12-23T02:54:22.362Z,610.00
2022-12-23T02:54:52.352Z,611.00
2022-12-23T02:55:22.354Z,609.00
2022-12-23T02:55:52.420Z,611.00
2022-12-23T02:56:22.399Z,611.00
2022-12-23T02:56:52.424Z,611.00
2022-12-23T02:57:22.389Z,613.00
2022-12-23T02:57:52.414Z,615.00
2022-12-23T02:58:22.402Z,613.00
2022-12-23T02:58:52.413Z,612.00
2022-12-23T02:59:22.455Z,611.00
2022-12-23T02:59:52.478Z,612.00
2022-12-23T03:00:22.461Z,609.00
2022-12-23T03:00:52.487Z,609.00
2022-12-23T03:01:22.562Z,611.00
2022-12-23T03:01:52.824Z,612.00
2022-12-23T03:02:22.794Z,609.00
2022-12-23T03:02:52.851Z,610.00
2022-12-23T03:03:22.777Z,611.00
2022-12-23T03:03:52.818Z,609.00
2022-12-23T03:04:22.887Z,607.00
2022-12-23T03:04:52.875Z,610.00
2022-12-23T03:05:22.886Z,609.00
2022-12-23T03:05:52.892Z,612.00
2022-12-23T03:06:22.890Z,611.00
2022-12-23T03:06:52.906Z,611.00
2022-12-23T03:07:22.950Z,610.00
2022-12-23T03:07:52.924Z,608.00
2022-12-23T03:08:22.921Z,608.00
2022-12-23T03:09:32.084Z,634.00
2022-12-23T03:10:02.116Z,628.00
2022-12-23T03:10:32.148Z,627.00
2022-12-23T03:11:02.179Z,628.00
2022-12-23T03:11:32.220Z,628.00
2022-12-23T03:12:02.271Z,626.00
2022-12-23T03:12:32.318Z,623.00
2022-12-23T03:13:02.361Z,621.00
2022-12-23T03:13:32.399Z,623.00
2022-12-23T03:14:02.452Z,626.00
2022-12-23T03:14:32.521Z,625.00
2022-12-23T03:15:02.547Z,627.00
2022-12-23T03:15:32.634Z,627.00
2022-12-23T03:16:02.693Z,628.00
2022-12-23T03:16:32.657Z,626.00
2022-12-23T03:17:02.700Z,629.00
2022-12-23T03:17:32.739Z,630.00
2022-12-23T03:18:02.795Z,629.00
2022-12-23T03:18:32.827Z,629.00
2022-12-23T03:19:02.873Z,629.00
2022-12-23T03:19:32.971Z,629.00
2022-12-23T03:20:03.038Z,631.00
2022-12-23T03:20:33.125Z,629.00
2022-12-23T03:21:03.216Z,628.00
2022-12-23T03:21:33.295Z,629.00
2022-12-23T03:22:03.372Z,627.00
2022-12-23T03:22:33.477Z,627.00
2022-12-23T03:23:03.562Z,624.00
2022-12-23T03:23:33.625Z,622.00
2022-12-23T03:24:03.713Z,623.00
2022-12-23T03:24:33.810Z,622.00
2022-12-23T03:25:03.899Z,623.00
2022-12-23T03:25:33.982Z,623.00
2022-12-23T03:26:04.059Z,624.00
2022-12-23T03:26:34.136Z,626.00
2022-12-23T03:27:04.228Z,628.00
2022-12-23T03:27:34.315Z,629.00
2022-12-23T03:28:04.383Z,627.00
2022-12-23T03:28:34.499Z,624.00
2022-12-23T03:29:04.493Z,626.00
2022-12-23T03:29:34.588Z,626.00
2022-12-23T03:30:04.667Z,626.00
2022-12-23T03:30:34.754Z,623.00
2022-12-23T03:31:04.877Z,624.00
2022-12-23T03:31:34.947Z,624.00
2022-12-23T03:32:04.930Z,628.00
2022-12-23T03:32:35.004Z,626.00
2022-12-23T03:33:05.085Z,626.00
2022-12-23T03:33:35.179Z,627.00
2022-12-23T03:34:05.274Z,626.00
2022-12-23T03:34:35.365Z,625.00
2022-12-23T03:35:05.433Z,625.00
2022-12-23T03:35:35.526Z,625.00
2022-12-23T03:36:05.611Z,624.00
2022-12-23T03:36:35.688Z,624.00
2022-12-23T03:37:05.773Z,625.00
2022-12-23T03:37:35.858Z,623.00
2022-12-23T03:38:05.981Z,623.00
2022-12-23T03:38:36.067Z,621.00
2022-12-23T03:39:06.152Z,620.00
2022-12-23T03:39:36.230Z,619.00
2022-12-23T03:40:06.308Z,620.00
2022-12-23T03:40:36.418Z,621.00
2022-12-23T03:41:06.497Z,621.00
2022-12-23T03:41:36.560Z,622.00
2022-12-23T03:42:06.662Z,619.00
2022-12-23T03:42:36.737Z,618.00
2022-12-23T03:43:06.810Z,618.00
2022-12-23T03:43:36.804Z,619.00
2022-12-23T03:44:06.913Z,619.00
2022-12-23T03:44:36.993Z,622.00
2022-12-23T03:45:39.101Z,623.00
2022-12-23T03:46:07.313Z,622.00
2022-12-23T03:46:37.408Z,621.00
2022-12-23T03:47:07.379Z,621.00
2022-12-23T03:47:37.466Z,622.00
2022-12-23T03:48:07.551Z,622.00
2022-12-23T03:48:37.651Z,621.00
2022-12-23T03:49:07.715Z,620.00
2022-12-23T03:49:37.798Z,620.00
2022-12-23T03:50:07.911Z,619.00
2022-12-23T03:50:37.973Z,620.00
2022-12-23T03:51:08.069Z,621.00
2022-12-23T03:51:38.133Z,621.00
2022-12-23T03:52:08.222Z,621.00
2022-12-23T03:52:38.297Z,623.00
2022-12-23T03:53:08.402Z,620.00
2022-12-23T03:53:38.454Z,619.00
2022-12-23T03:54:08.532Z,620.00
2022-12-23T03:54:38.617Z,621.00
2022-12-23T03:55:08.706Z,621.00
2022-12-23T03:55:38.780Z,620.00
2022-12-23T03:56:08.847Z,622.00
2022-12-23T03:56:38.932Z,621.00
2022-12-23T03:57:09.029Z,622.00
2022-12-23T03:57:39.102Z,621.00
2022-12-23T03:58:09.189Z,622.00
2022-12-23T03:58:39.263Z,624.00
2022-12-23T03:59:09.355Z,625.00
2022-12-23T03:59:39.451Z,624.00
2022-12-23T04:00:09.522Z,623.00
2022-12-23T04:00:39.605Z,624.00
2022-12-23T04:01:09.849Z,624.00
2022-12-23T04:01:39.825Z,623.00
2022-12-23T04:02:09.983Z,622.00
2022-12-23T04:02:39.988Z,620.00
2022-12-23T04:03:09.915Z,618.00
2022-12-23T04:03:40.076Z,620.00
2022-12-23T04:04:10.179Z,622.00
2022-12-23T04:04:40.131Z,621.00
2022-12-23T04:05:10.244Z,621.00
2022-12-23T04:05:40.222Z,619.00
2022-12-23T04:06:10.325Z,620.00
2022-12-23T04:06:40.409Z,618.00
2022-12-23T04:07:10.493Z,617.00
2022-12-23T04:07:40.573Z,617.00
2022-12-23T04:08:10.659Z,616.00
2022-12-23T04:08:40.769Z,616.00
2022-12-23T04:09:10.813Z,616.00
2022-12-23T04:09:40.851Z,616.00
2022-12-23T04:10:10.907Z,615.00
2022-12-23T04:10:40.951Z,615.00
2022-12-23T04:11:10.980Z,614.00
2022-12-23T04:11:41.021Z,616.00
2022-12-23T04:12:11.071Z,617.00
2022-12-23T04:12:41.103Z,614.00
2022-12-23T04:13:11.137Z,614.00
2022-12-23T04:13:41.193Z,615.00
2022-12-23T04:14:11.204Z,616.00
2022-12-23T04:14:41.252Z,616.00
2022-12-23T04:15:13.318Z,616.00
2022-12-23T04:15:41.448Z,614.00
2022-12-23T04:16:11.485Z,613.00
2022-12-23T04:16:41.509Z,613.00
2022-12-23T04:17:11.560Z,613.00
2022-12-23T04:17:41.591Z,608.00
2022-12-23T04:18:11.645Z,608.00
2022-12-23T04:18:41.674Z,605.00
2022-12-23T04:19:11.737Z,606.00
2022-12-23T04:19:41.824Z,607.00
2022-12-23T04:20:11.916Z,607.00
2022-12-23T04:20:41.992Z,609.00
2022-12-23T04:21:12.072Z,610.00
2022-12-23T04:21:42.161Z,611.00
2022-12-23T04:22:12.247Z,610.00
2022-12-23T04:22:42.325Z,609.00
2022-12-23T04:23:12.407Z,608.00
2022-12-23T04:23:42.499Z,606.00
2022-12-23T04:24:12.607Z,605.00
2022-12-23T04:24:42.681Z,603.00
2022-12-23T04:25:12.807Z,604.00
2022-12-23T04:25:42.767Z,607.00
2022-12-23T04:26:12.859Z,608.00
2022-12-23T04:26:42.960Z,608.00
2022-12-23T04:27:13.036Z,607.00
2022-12-23T04:27:43.119Z,608.00
2022-12-23T04:28:13.197Z,606.00
2022-12-23T04:28:43.270Z,604.00
2022-12-23T04:29:13.401Z,604.00
2022-12-23T04:29:43.362Z,605.00
2022-12-23T04:30:13.461Z,602.00
2022-12-23T04:30:43.521Z,602.00
2022-12-23T04:31:13.744Z,605.00
2022-12-23T04:31:43.675Z,605.00
2022-12-23T04:32:13.650Z,607.00
2022-12-23T04:32:43.742Z,606.00
2022-12-23T04:33:13.824Z,608.00
2022-12-23T04:33:43.922Z,607.00
2022-12-23T04:34:14.020Z,608.00
2022-12-23T04:34:44.094Z,611.00
2022-12-23T04:35:14.177Z,613.00
2022-12-23T04:35:44.273Z,610.00
2022-12-23T04:36:14.346Z,610.00
2022-12-23T04:36:44.447Z,611.00
2022-12-23T04:37:14.532Z,612.00
2022-12-23T04:37:44.612Z,612.00
2022-12-23T04:38:14.695Z,613.00
2022-12-23T04:38:44.775Z,613.00
2022-12-23T04:39:14.876Z,609.00
2022-12-23T04:39:44.986Z,607.00
2022-12-23T04:40:15.051Z,607.00
2022-12-23T04:40:45.129Z,608.00
2022-12-23T04:41:15.232Z,608.00
2022-12-23T04:41:45.292Z,609.00
2022-12-23T04:42:15.375Z,612.00
2022-12-23T04:42:45.462Z,614.00
2022-12-23T04:43:15.546Z,614.00
2022-12-23T04:43:52.538Z,611.00
2022-12-23T04:44:15.730Z,613.00
2022-12-23T04:44:45.704Z,615.00
2022-12-23T04:45:15.795Z,613.00
2022-12-23T04:45:45.873Z,612.00
2022-12-23T04:46:15.989Z,611.00
2022-12-23T04:46:46.116Z,610.00
2022-12-23T04:47:16.153Z,612.00
2022-12-23T04:47:46.231Z,612.00
2022-12-23T04:48:16.320Z,609.00
2022-12-23T04:48:46.423Z,610.00
2022-12-23T04:49:16.506Z,610.00
2022-12-23T04:49:46.583Z,610.00
2022-12-23T04:50:16.677Z,612.00
2022-12-23T04:50:46.750Z,613.00
2022-12-23T04:51:16.854Z,615.00
2022-12-23T04:51:46.920Z,617.00
2022-12-23T04:52:16.999Z,615.00
2022-12-23T04:52:47.088Z,615.00
2022-12-23T04:53:17.184Z,612.00
2022-12-23T04:53:47.306Z,611.00
2022-12-23T04:54:17.267Z,611.00
2022-12-23T04:54:47.404Z,610.00
2022-12-23T04:55:17.458Z,609.00
2022-12-23T04:55:47.541Z,609.00
2022-12-23T04:56:17.632Z,609.00
2022-12-23T04:56:47.705Z,611.00
2022-12-23T04:57:17.789Z,607.00
2022-12-23T04:57:47.873Z,606.00
2022-12-23T04:58:17.947Z,608.00
2022-12-23T04:58:48.047Z,609.00
2022-12-23T04:59:18.127Z,609.00
2022-12-23T04:59:48.221Z,610.00
2022-12-23T05:00:18.303Z,610.00
2022-12-23T05:00:48.457Z,611.00
2022-12-23T05:01:18.496Z,612.00
2022-12-23T05:01:48.687Z,611.00
2022-12-23T05:02:18.679Z,611.00
2022-12-23T05:02:48.773Z,611.00
2022-12-23T05:03:18.878Z,611.00
2022-12-23T05:03:48.751Z,612.00
2022-12-23T05:04:18.903Z,614.00
2022-12-23T05:04:48.886Z,615.00
2022-12-23T05:05:18.983Z,615.00
2022-12-23T05:05:49.072Z,615.00
2022-12-23T05:06:19.156Z,613.00
2022-12-23T05:06:49.252Z,613.00
2022-12-23T05:07:19.324Z,610.00
2022-12-23T05:07:49.410Z,611.00
2022-12-23T05:08:19.501Z,611.00
2022-12-23T05:08:49.618Z,610.00
2022-12-23T05:09:19.684Z,611.00
2022-12-23T05:09:49.717Z,608.00
2022-12-23T05:10:19.768Z,606.00
2022-12-23T05:10:49.816Z,606.00
2022-12-23T05:11:19.840Z,606.00
2022-12-23T05:11:49.867Z,604.00
2022-12-23T05:12:19.909Z,603.00
2022-12-23T05:12:49.945Z,605.00
2022-12-23T05:13:19.991Z,605.00
2022-12-23T05:13:50.056Z,609.00
2022-12-23T05:14:20.086Z,608.00
2022-12-23T05:14:50.135Z,610.00
2022-12-23T05:15:20.176Z,608.00
2022-12-23T05:15:50.285Z,606.00
2022-12-23T05:16:20.383Z,606.00
2022-12-23T05:16:50.547Z,605.00
2022-12-23T05:17:20.498Z,604.00
2022-12-23T05:17:50.541Z,605.00
2022-12-23T05:18:20.577Z,604.00
2022-12-23T05:18:50.632Z,604.00
2022-12-23T05:19:20.703Z,607.00
2022-12-23T05:19:50.794Z,606.00
2022-12-23T05:20:20.867Z,605.00
2022-12-23T05:20:50.957Z,604.00
2022-12-23T05:21:21.029Z,605.00
2022-12-23T05:21:51.113Z,605.00
2022-12-23T05:22:21.208Z,605.00
2022-12-23T05:22:51.286Z,605.00
2022-12-23T05:23:21.368Z,604.00
2022-12-23T05:23:51.482Z,606.00
2022-12-23T05:24:21.464Z,605.00
2022-12-23T05:24:51.542Z,604.00
2022-12-23T05:25:21.649Z,602.00
2022-12-23T05:25:51.723Z,603.00
2022-12-23T05:26:21.808Z,607.00
2022-12-23T05:26:59.482Z,608.00
2022-12-23T05:27:21.965Z,607.00
2022-12-23T05:27:52.052Z,608.00
2022-12-23T05:28:22.177Z,605.00
2022-12-23T05:28:52.253Z,604.00
2022-12-23T05:29:22.343Z,603.00
2022-12-23T05:29:52.417Z,606.00
2022-12-23T05:30:22.515Z,607.00
2022-12-23T05:30:52.609Z,607.00
2022-12-23T05:31:22.696Z,605.00
2022-12-23T05:31:52.852Z,605.00
2022-12-23T05:32:22.855Z,604.00
2022-12-23T05:32:52.932Z,604.00
2022-12-23T05:33:23.088Z,604.00
2022-12-23T05:33:53.238Z,599.00
2022-12-23T05:34:23.150Z,601.00
2022-12-23T05:34:53.226Z,602.00
2022-12-23T05:35:23.299Z,600.00
2022-12-23T05:35:53.378Z,601.00
2022-12-23T05:36:23.458Z,601.00
2022-12-23T05:36:53.549Z,602.00
2022-12-23T05:37:23.638Z,601.00
2022-12-23T05:37:53.713Z,601.00
2022-12-23T05:38:23.790Z,602.00
2022-12-23T05:38:53.901Z,603.00
2022-12-23T05:39:23.874Z,602.00
2022-12-23T05:39:53.945Z,601.00
2022-12-23T05:40:24.943Z,601.00
2022-12-23T05:40:54.101Z,601.00
2022-12-23T05:41:24.185Z,601.00
2022-12-23T05:41:54.268Z,601.00
2022-12-23T05:42:24.345Z,602.00
2022-12-23T05:42:54.429Z,602.00
2022-12-23T05:43:24.511Z,601.00
2022-12-23T05:43:54.620Z,601.00
2022-12-23T05:44:24.704Z,600.00
2022-12-23T05:44:54.780Z,601.00
2022-12-23T05:45:24.885Z,604.00
2022-12-23T05:45:55.073Z,603.00
2022-12-23T05:46:27.024Z,604.00
2022-12-23T05:46:55.001Z,606.00
2022-12-23T05:47:25.092Z,605.00
2022-12-23T05:47:55.167Z,606.00
2022-12-23T05:48:25.240Z,606.00
2022-12-23T05:48:55.336Z,606.00
2022-12-23T05:49:25.454Z,605.00
2022-12-23T05:49:55.541Z,604.00
2022-12-23T05:50:25.606Z,603.00
2022-12-23T05:50:55.704Z,604.00
2022-12-23T05:51:25.786Z,604.00
2022-12-23T05:51:55.880Z,602.00
2022-12-23T05:52:25.952Z,602.00
2022-12-23T05:52:56.031Z,601.00
2022-12-23T05:53:26.105Z,600.00
2022-12-23T05:53:56.204Z,598.00
2022-12-23T05:54:26.264Z,597.00
2022-12-23T05:54:56.348Z,599.00
2022-12-23T05:55:26.456Z,598.00
2022-12-23T05:55:56.518Z,597.00
2022-12-23T05:56:26.608Z,598.00
2022-12-23T05:56:56.696Z,599.00
2022-12-23T05:57:26.760Z,598.00
2022-12-23T05:57:56.845Z,600.00
2022-12-23T05:58:26.929Z,601.00
2022-12-23T05:58:57.024Z,602.00
2022-12-23T05:59:31.011Z,598.00
2022-12-23T05:59:57.144Z,597.00
2022-12-23T06:00:27.228Z,596.00
2022-12-23T06:00:57.313Z,596.00
2022-12-23T06:01:27.424Z,600.00
2022-12-23T06:01:57.653Z,597.00
2022-12-23T06:02:27.728Z,599.00
2022-12-23T06:02:57.833Z,601.00
2022-12-23T06:03:27.771Z,601.00
2022-12-23T06:03:57.823Z,601.00
2022-12-23T06:04:27.786Z,603.00
2022-12-23T06:04:57.831Z,602.00
2022-12-23T06:05:27.911Z,601.00
2022-12-23T06:05:57.999Z,599.00
2022-12-23T06:06:28.076Z,598.00
2022-12-23T06:06:58.167Z,598.00
2022-12-23T06:07:28.245Z,597.00
2022-12-23T06:07:58.353Z,597.00
2022-12-23T06:08:28.417Z,599.00
2022-12-23T06:09:00.095Z,601.00
2022-12-23T06:09:28.583Z,599.00
2022-12-23T06:09:58.613Z,600.00
2022-12-23T06:10:28.660Z,602.00
2022-12-23T06:10:58.707Z,603.00
2022-12-23T06:11:28.786Z,602.00
2022-12-23T06:11:58.808Z,606.00
2022-12-23T06:12:28.853Z,607.00
2022-12-23T06:12:58.974Z,606.00
2022-12-23T06:13:28.974Z,605.00
2022-12-23T06:13:59.008Z,605.00
2022-12-23T06:14:29.705Z,606.00
2022-12-23T06:14:59.123Z,607.00
2022-12-23T06:15:29.156Z,604.00
2022-12-23T06:15:59.182Z,605.00
2022-12-23T06:16:29.278Z,605.00